Amityville, NY (11701)

4:38 PM EDT on May 28, 2017 (GMT -0400)
Amityville | | Change Station
Active Advisory: Coastal Flood Statement Active Notice: Coastal Flood Statement

Elev 43 ft 40.69 °N, 73.42 °W | Updated 13 seconds ago

Clear
Clear
66.4 °F
Feels Like 66.4 °F
N
0.9
Wind Variable Wind from South
Gusts 2.5 mph

Today
High -- | Low -- °F
--% Chance of Precip.
Yesterday
High -- | Low -- °F
Precip. -- in
Pressure 29.95 in
Visibility 10.0 miles
Clouds Clear
Dew Point 39 °F
Humidity 36%
Rainfall 0.00 in
Snow Depth Not available.
5:26 AM 8:15 PM
Waxing Crescent, 13% visible
METAR KFRG 281953Z 15012KT 10SM CLR 18/11 A2995 RMK AO2 SLP142 T01830111
Pressure 29.95 in
Visibility 10.0 miles
Clouds Clear
Dew Point 39 °F
Humidity 36%
Rainfall 0.00 in
Snow Depth Not available.
5:26 AM 8:15 PM
Waxing Crescent, 13% visible
METAR KFRG 281953Z 15012KT 10SM CLR 18/11 A2995 RMK AO2 SLP142 T01830111

Get Your Daily Forecast Email!

Thanks for signing up!

Be on the lookout for a verification email in your inbox.

You'll start receiving severe weather alerts in your inbox..

×

10-Day Weather Forecast

Almanac

Astronomy

May. 28, 2017 Rise Set
Actual Time
Civil Twilight
Nautical Twilight
Astronomical Twilight
Moon
Length of Visible Light
Length of Day
Tomorrow will be .
, % of the Moon is Illuminated

Today's Extremes

State Highs State Lows

Community

WunderPhotos

Category 6

Welcome to Category 6. This is the collective home for Weather Underground's featured writeups by Dr. Jeff Masters (right), Bob Henson (left), Chris Burt, and other regular contributors.

Nearby

Air Quality

  Air Quality AQ Index Pollutant
Not available.

Snow Depth

Station Depth Elevation

Earthquake Activity

City Distance Mag. Time & Date
Minimum magnitude displayed is 2.5.

Coastal Water Temperatures

Place Temperature

Stations

Nearby Weather Stations

Station Location Temp. Windchill Dew Point Humidity Wind Precip. Elev Updated Type
                   

Watches & Warnings

Coastal Flood Statement
Issued: 3:36 PM EDT May. 28, 2017 – National Weather Service

* locations... along the South Shore bays of southwestern Suffolk
County.

* Positive tidal departures... 1 to 1 1/2 ft.

* Timing... around the times of high tide tonight.

* Impacts... brief minor flooding of the most vulnerable
Waterfront and shoreline roads.